sensor_id;sensor_type;location;lat;lon;timestamp;temperature;humidity
23729;DHT22;12045;60.214;24.724;2024-02-26T00:01:05;2.50;99.90
23729;DHT22;12045;60.214;24.724;2024-02-26T00:03:34;2.40;99.90
23729;DHT22;12045;60.214;24.724;2024-02-26T00:06:03;2.30;99.90
23729;DHT22;12045;60.214;24.724;2024-02-26T00:08:31;2.30;99.90
23729;DHT22;12045;60.214;24.724;2024-02-26T00:10:59;2.60;99.90
23729;DHT22;12045;60.214;24.724;2024-02-26T00:13:26;2.40;99.90
23729;DHT22;12045;60.214;24.724;2024-02-26T00:15:55;2.50;99.90
23729;DHT22;12045;60.214;24.724;2024-02-26T00:18:23;2.30;99.90
23729;DHT22;12045;60.214;24.724;2024-02-26T00:20:54;2.40;99.90
23729;DHT22;12045;60.214;24.724;2024-02-26T00:23:24;2.30;99.90
23729;DHT22;12045;60.214;24.724;2024-02-26T00:25:52;2.20;99.90
23729;DHT22;12045;60.214;24.724;2024-02-26T00:28:21;2.20;99.90
23729;DHT22;12045;60.214;24.724;2024-02-26T00:30:49;1.90;99.90
23729;DHT22;12045;60.214;24.724;2024-02-26T00:33:18;1.90;99.90
23729;DHT22;12045;60.214;24.724;2024-02-26T00:35:45;2.10;99.90
23729;DHT22;12045;60.214;24.724;2024-02-26T00:38:13;2.00;99.90
23729;DHT22;12045;60.214;24.724;2024-02-26T00:40:42;2.30;99.90
23729;DHT22;12045;60.214;24.724;2024-02-26T00:43:10;2.10;99.90
23729;DHT22;12045;60.214;24.724;2024-02-26T00:45:37;2.70;99.90
23729;DHT22;12045;60.214;24.724;2024-02-26T00:48:05;2.20;99.90
23729;DHT22;12045;60.214;24.724;2024-02-26T00:50:33;2.30;99.90
23729;DHT22;12045;60.214;24.724;2024-02-26T00:53:02;2.90;99.90
23729;DHT22;12045;60.214;24.724;2024-02-26T00:55:29;2.40;99.90
23729;DHT22;12045;60.214;24.724;2024-02-26T00:57:59;2.40;99.90
23729;DHT22;12045;60.214;24.724;2024-02-26T01:00:27;2.30;99.90
23729;DHT22;12045;60.214;24.724;2024-02-26T01:02:56;2.40;99.90
23729;DHT22;12045;60.214;24.724;2024-02-26T01:05:25;2.50;99.90
23729;DHT22;12045;60.214;24.724;2024-02-26T01:07:53;2.60;99.90
23729;DHT22;12045;60.214;24.724;2024-02-26T01:10:21;2.30;99.90
23729;DHT22;12045;60.214;24.724;2024-02-26T01:12:49;2.30;99.90
23729;DHT22;12045;60.214;24.724;2024-02-26T01:15:18;2.90;99.90
23729;DHT22;12045;60.214;24.724;2024-02-26T01:17:50;2.30;99.90
23729;DHT22;12045;60.214;24.724;2024-02-26T01:20:20;2.20;99.90
23729;DHT22;12045;60.214;24.724;2024-02-26T01:22:48;2.10;99.90
23729;DHT22;12045;60.214;24.724;2024-02-26T01:25:17;2.10;99.90
23729;DHT22;12045;60.214;24.724;2024-02-26T01:27:46;2.30;99.90
23729;DHT22;12045;60.214;24.724;2024-02-26T01:30:16;2.10;99.90
23729;DHT22;12045;60.214;24.724;2024-02-26T01:32:45;2.20;99.90
23729;DHT22;12045;60.214;24.724;2024-02-26T01:35:12;2.20;99.90
23729;DHT22;12045;60.214;24.724;2024-02-26T01:37:43;2.20;99.90
23729;DHT22;12045;60.214;24.724;2024-02-26T01:40:12;2.70;99.90
23729;DHT22;12045;60.214;24.724;2024-02-26T01:42:39;1.60;99.90
23729;DHT22;12045;60.214;24.724;2024-02-26T01:45:14;2.00;99.90
23729;DHT22;12045;60.214;24.724;2024-02-26T01:47:43;2.10;99.90
23729;DHT22;12045;60.214;24.724;2024-02-26T01:50:14;2.00;99.90
23729;DHT22;12045;60.214;24.724;2024-02-26T01:52:42;1.60;99.90
23729;DHT22;12045;60.214;24.724;2024-02-26T01:55:10;1.80;99.90
23729;DHT22;12045;60.214;24.724;2024-02-26T01:57:38;1.70;99.90
23729;DHT22;12045;60.214;24.724;2024-02-26T02:00:06;1.80;99.90
23729;DHT22;12045;60.214;24.724;2024-02-26T02:02:36;1.80;99.90
23729;DHT22;12045;60.214;24.724;2024-02-26T02:05:07;1.80;99.90
23729;DHT22;12045;60.214;24.724;2024-02-26T02:07:35;1.80;99.90
23729;DHT22;12045;60.214;24.724;2024-02-26T02:10:04;2.40;99.90
23729;DHT22;12045;60.214;24.724;2024-02-26T02:12:32;1.80;99.90
23729;DHT22;12045;60.214;24.724;2024-02-26T02:15:01;2.20;99.90
23729;DHT22;12045;60.214;24.724;2024-02-26T02:17:29;1.60;99.90
23729;DHT22;12045;60.214;24.724;2024-02-26T02:19:58;1.70;99.90
23729;DHT22;12045;60.214;24.724;2024-02-26T02:22:27;1.70;99.90
23729;DHT22;12045;60.214;24.724;2024-02-26T02:24:55;1.80;99.90
23729;DHT22;12045;60.214;24.724;2024-02-26T02:27:23;1.90;99.90
23729;DHT22;12045;60.214;24.724;2024-02-26T02:29:53;2.00;99.90
23729;DHT22;12045;60.214;24.724;2024-02-26T02:32:21;1.90;99.90
23729;DHT22;12045;60.214;24.724;2024-02-26T02:34:49;2.00;99.90
23729;DHT22;12045;60.214;24.724;2024-02-26T02:37:18;2.30;99.90
23729;DHT22;12045;60.214;24.724;2024-02-26T02:39:46;2.10;99.90
23729;DHT22;12045;60.214;24.724;2024-02-26T02:42:15;1.90;99.90
23729;DHT22;12045;60.214;24.724;2024-02-26T02:44:43;2.50;99.90
23729;DHT22;12045;60.214;24.724;2024-02-26T02:47:12;2.00;99.90
23729;DHT22;12045;60.214;24.724;2024-02-26T02:49:40;2.00;99.90
23729;DHT22;12045;60.214;24.724;2024-02-26T02:52:08;1.90;99.90
23729;DHT22;12045;60.214;24.724;2024-02-26T02:54:37;2.00;99.90
23729;DHT22;12045;60.214;24.724;2024-02-26T02:57:08;2.20;99.90
23729;DHT22;12045;60.214;24.724;2024-02-26T02:59:37;1.90;99.90
23729;DHT22;12045;60.214;24.724;2024-02-26T03:02:06;2.30;99.90
23729;DHT22;12045;60.214;24.724;2024-02-26T03:04:34;1.90;99.90
23729;DHT22;12045;60.214;24.724;2024-02-26T03:07:03;2.10;99.90
23729;DHT22;12045;60.214;24.724;2024-02-26T03:09:31;2.00;99.90
23729;DHT22;12045;60.214;24.724;2024-02-26T03:12:01;2.40;99.90
23729;DHT22;12045;60.214;24.724;2024-02-26T03:14:29;2.50;99.90
23729;DHT22;12045;60.214;24.724;2024-02-26T03:16:57;2.30;99.90
23729;DHT22;12045;60.214;24.724;2024-02-26T03:19:25;2.00;99.90
23729;DHT22;12045;60.214;24.724;2024-02-26T03:21:54;2.00;99.90
23729;DHT22;12045;60.214;24.724;2024-02-26T03:24:24;2.00;99.90
23729;DHT22;12045;60.214;24.724;2024-02-26T03:26:52;2.00;99.90
23729;DHT22;12045;60.214;24.724;2024-02-26T03:29:21;2.10;99.90
23729;DHT22;12045;60.214;24.724;2024-02-26T03:31:48;2.10;99.90
23729;DHT22;12045;60.214;24.724;2024-02-26T03:34:16;2.00;99.90
23729;DHT22;12045;60.214;24.724;2024-02-26T03:36:46;2.00;99.90
23729;DHT22;12045;60.214;24.724;2024-02-26T03:39:14;2.30;99.90
23729;DHT22;12045;60.214;24.724;2024-02-26T03:41:42;2.00;99.90
23729;DHT22;12045;60.214;24.724;2024-02-26T03:44:12;2.00;99.90
23729;DHT22;12045;60.214;24.724;2024-02-26T03:46:40;2.00;99.90
23729;DHT22;12045;60.214;24.724;2024-02-26T03:49:09;2.30;99.90
23729;DHT22;12045;60.214;24.724;2024-02-26T03:51:37;2.20;99.90
23729;DHT22;12045;60.214;24.724;2024-02-26T03:54:05;2.10;99.90
23729;DHT22;12045;60.214;24.724;2024-02-26T03:56:34;2.10;99.90
23729;DHT22;12045;60.214;24.724;2024-02-26T03:59:01;2.70;99.90
23729;DHT22;12045;60.214;24.724;2024-02-26T04:01:31;2.20;99.90
23729;DHT22;12045;60.214;24.724;2024-02-26T04:04:00;1.80;99.90
23729;DHT22;12045;60.214;24.724;2024-02-26T04:06:28;1.90;99.90
23729;DHT22;12045;60.214;24.724;2024-02-26T04:08:57;1.80;99.90
23729;DHT22;12045;60.214;24.724;2024-02-26T04:11:26;2.20;99.90
23729;DHT22;12045;60.214;24.724;2024-02-26T04:13:53;1.70;99.90
23729;DHT22;12045;60.214;24.724;2024-02-26T04:16:21;1.70;99.90
23729;DHT22;12045;60.214;24.724;2024-02-26T04:18:50;1.70;99.90
23729;DHT22;12045;60.214;24.724;2024-02-26T04:21:19;2.10;99.90
23729;DHT22;12045;60.214;24.724;2024-02-26T04:23:48;2.00;99.90
23729;DHT22;12045;60.214;24.724;2024-02-26T04:26:16;2.40;99.90
23729;DHT22;12045;60.214;24.724;2024-02-26T04:28:44;1.70;99.90
23729;DHT22;12045;60.214;24.724;2024-02-26T04:31:12;2.20;99.90
23729;DHT22;12045;60.214;24.724;2024-02-26T04:33:40;1.90;99.90
23729;DHT22;12045;60.214;24.724;2024-02-26T04:36:16;1.90;99.90
23729;DHT22;12045;60.214;24.724;2024-02-26T04:38:45;1.80;99.90
23729;DHT22;12045;60.214;24.724;2024-02-26T04:41:12;1.70;99.90
23729;DHT22;12045;60.214;24.724;2024-02-26T04:43:41;1.80;99.90
23729;DHT22;12045;60.214;24.724;2024-02-26T04:46:10;1.70;99.90
23729;DHT22;12045;60.214;24.724;2024-02-26T04:48:39;1.70;99.90
23729;DHT22;12045;60.214;24.724;2024-02-26T04:51:10;1.70;99.90
23729;DHT22;12045;60.214;24.724;2024-02-26T04:53:38;2.00;99.90
23729;DHT22;12045;60.214;24.724;2024-02-26T04:56:08;1.90;99.90
23729;DHT22;12045;60.214;24.724;2024-02-26T04:58:37;1.90;99.90
23729;DHT22;12045;60.214;24.724;2024-02-26T05:01:09;1.90;99.90
23729;DHT22;12045;60.214;24.724;2024-02-26T05:03:38;1.70;99.90
23729;DHT22;12045;60.214;24.724;2024-02-26T05:06:08;1.60;99.90
23729;DHT22;12045;60.214;24.724;2024-02-26T05:08:37;1.10;99.90
23729;DHT22;12045;60.214;24.724;2024-02-26T05:11:07;2.00;99.90
23729;DHT22;12045;60.214;24.724;2024-02-26T05:13:35;2.30;99.90
23729;DHT22;12045;60.214;24.724;2024-02-26T05:16:03;1.60;99.90
23729;DHT22;12045;60.214;24.724;2024-02-26T05:18:30;1.60;99.90
23729;DHT22;12045;60.214;24.724;2024-02-26T05:20:59;2.20;99.90
23729;DHT22;12045;60.214;24.724;2024-02-26T05:23:29;1.80;99.90
23729;DHT22;12045;60.214;24.724;2024-02-26T05:25:58;1.60;99.90
23729;DHT22;12045;60.214;24.724;2024-02-26T05:28:26;2.10;99.90
23729;DHT22;12045;60.214;24.724;2024-02-26T05:30:56;1.60;99.90
23729;DHT22;12045;60.214;24.724;2024-02-26T05:33:23;1.60;99.90
23729;DHT22;12045;60.214;24.724;2024-02-26T05:35:52;2.00;99.90
23729;DHT22;12045;60.214;24.724;2024-02-26T05:38:19;2.10;99.90
23729;DHT22;12045;60.214;24.724;2024-02-26T05:40:48;1.70;99.90
23729;DHT22;12045;60.214;24.724;2024-02-26T05:43:20;1.60;99.90
23729;DHT22;12045;60.214;24.724;2024-02-26T05:45:48;2.30;99.90
23729;DHT22;12045;60.214;24.724;2024-02-26T05:48:16;1.60;99.90
23729;DHT22;12045;60.214;24.724;2024-02-26T05:50:45;1.60;99.90
23729;DHT22;12045;60.214;24.724;2024-02-26T05:53:14;2.00;99.90
23729;DHT22;12045;60.214;24.724;2024-02-26T05:55:42;1.80;99.90
23729;DHT22;12045;60.214;24.724;2024-02-26T05:58:11;1.50;99.90
23729;DHT22;12045;60.214;24.724;2024-02-26T06:00:39;2.00;99.90
23729;DHT22;12045;60.214;24.724;2024-02-26T06:03:07;1.60;99.90
23729;DHT22;12045;60.214;24.724;2024-02-26T06:05:35;1.50;99.90
23729;DHT22;12045;60.214;24.724;2024-02-26T06:08:04;1.50;99.90
23729;DHT22;12045;60.214;24.724;2024-02-26T06:10:33;1.50;99.90
23729;DHT22;12045;60.214;24.724;2024-02-26T06:13:00;1.60;99.90
23729;DHT22;12045;60.214;24.724;2024-02-26T06:15:28;1.90;99.90
23729;DHT22;12045;60.214;24.724;2024-02-26T06:17:57;1.80;99.90
23729;DHT22;12045;60.214;24.724;2024-02-26T06:20:25;1.70;99.90
23729;DHT22;12045;60.214;24.724;2024-02-26T06:22:53;2.00;99.90
23729;DHT22;12045;60.214;24.724;2024-02-26T06:25:22;2.00;99.90
23729;DHT22;12045;60.214;24.724;2024-02-26T06:27:50;1.70;99.90
23729;DHT22;12045;60.214;24.724;2024-02-26T06:30:19;1.80;99.90
23729;DHT22;12045;60.214;24.724;2024-02-26T06:32:50;1.80;99.90
23729;DHT22;12045;60.214;24.724;2024-02-26T06:35:20;1.80;99.90
23729;DHT22;12045;60.214;24.724;2024-02-26T06:37:48;1.70;99.90
23729;DHT22;12045;60.214;24.724;2024-02-26T06:40:18;1.90;99.90
23729;DHT22;12045;60.214;24.724;2024-02-26T06:42:46;1.70;99.90
23729;DHT22;12045;60.214;24.724;2024-02-26T06:45:16;1.70;99.90
23729;DHT22;12045;60.214;24.724;2024-02-26T06:47:44;2.60;99.90
23729;DHT22;12045;60.214;24.724;2024-02-26T06:50:13;2.00;99.90
23729;DHT22;12045;60.214;24.724;2024-02-26T06:53:00;1.70;99.90
23729;DHT22;12045;60.214;24.724;2024-02-26T06:55:27;1.90;99.90
23729;DHT22;12045;60.214;24.724;2024-02-26T06:57:59;1.80;99.90
23729;DHT22;12045;60.214;24.724;2024-02-26T07:00:27;1.80;99.90
23729;DHT22;12045;60.214;24.724;2024-02-26T07:02:55;2.10;99.90
23729;DHT22;12045;60.214;24.724;2024-02-26T07:05:25;1.80;99.90
23729;DHT22;12045;60.214;24.724;2024-02-26T07:07:53;2.60;99.90
23729;DHT22;12045;60.214;24.724;2024-02-26T07:10:22;1.80;99.90
23729;DHT22;12045;60.214;24.724;2024-02-26T07:12:52;1.90;99.90
23729;DHT22;12045;60.214;24.724;2024-02-26T07:15:21;1.90;99.90
23729;DHT22;12045;60.214;24.724;2024-02-26T07:17:49;1.90;99.90
23729;DHT22;12045;60.214;24.724;2024-02-26T07:20:18;2.40;99.90
23729;DHT22;12045;60.214;24.724;2024-02-26T07:22:47;2.00;99.90
23729;DHT22;12045;60.214;24.724;2024-02-26T07:25:15;1.90;99.90
23729;DHT22;12045;60.214;24.724;2024-02-26T07:27:44;2.00;99.90
23729;DHT22;12045;60.214;24.724;2024-02-26T07:30:16;2.10;99.90
23729;DHT22;12045;60.214;24.724;2024-02-26T07:32:45;1.90;99.90
23729;DHT22;12045;60.214;24.724;2024-02-26T07:35:17;2.20;99.90
23729;DHT22;12045;60.214;24.724;2024-02-26T07:37:48;2.00;99.90
23729;DHT22;12045;60.214;24.724;2024-02-26T07:40:16;2.40;99.90
23729;DHT22;12045;60.214;24.724;2024-02-26T07:42:45;2.00;99.90
23729;DHT22;12045;60.214;24.724;2024-02-26T07:45:15;2.00;99.90
23729;DHT22;12045;60.214;24.724;2024-02-26T07:47:43;1.90;99.90
23729;DHT22;12045;60.214;24.724;2024-02-26T07:50:10;1.70;99.90
23729;DHT22;12045;60.214;24.724;2024-02-26T07:52:39;2.20;99.90
23729;DHT22;12045;60.214;24.724;2024-02-26T07:55:08;2.10;99.90
23729;DHT22;12045;60.214;24.724;2024-02-26T07:57:37;2.00;99.90
23729;DHT22;12045;60.214;24.724;2024-02-26T08:00:05;2.10;99.90
23729;DHT22;12045;60.214;24.724;2024-02-26T08:02:38;2.00;99.90
23729;DHT22;12045;60.214;24.724;2024-02-26T08:05:06;2.00;99.90
23729;DHT22;12045;60.214;24.724;2024-02-26T08:07:34;2.00;99.90
23729;DHT22;12045;60.214;24.724;2024-02-26T08:10:03;2.10;99.90
23729;DHT22;12045;60.214;24.724;2024-02-26T08:12:33;2.00;99.90
23729;DHT22;12045;60.214;24.724;2024-02-26T08:15:01;1.50;99.90
23729;DHT22;12045;60.214;24.724;2024-02-26T08:17:29;2.30;99.90
23729;DHT22;12045;60.214;24.724;2024-02-26T08:19:57;2.00;99.90
23729;DHT22;12045;60.214;24.724;2024-02-26T08:22:24;2.20;99.90
23729;DHT22;12045;60.214;24.724;2024-02-26T08:24:54;2.40;99.90
23729;DHT22;12045;60.214;24.724;2024-02-26T08:27:22;2.10;99.90
23729;DHT22;12045;60.214;24.724;2024-02-26T08:29:52;2.20;99.90
23729;DHT22;12045;60.214;24.724;2024-02-26T08:32:20;2.20;99.90
23729;DHT22;12045;60.214;24.724;2024-02-26T08:34:49;2.20;99.90
23729;DHT22;12045;60.214;24.724;2024-02-26T08:37:17;2.20;99.90
23729;DHT22;12045;60.214;24.724;2024-02-26T08:39:45;2.30;99.90
23729;DHT22;12045;60.214;24.724;2024-02-26T08:42:14;2.30;99.90
23729;DHT22;12045;60.214;24.724;2024-02-26T08:44:42;2.20;99.90
23729;DHT22;12045;60.214;24.724;2024-02-26T08:47:10;2.20;99.90
23729;DHT22;12045;60.214;24.724;2024-02-26T08:49:44;2.20;99.90
23729;DHT22;12045;60.214;24.724;2024-02-26T08:52:11;2.20;99.90
23729;DHT22;12045;60.214;24.724;2024-02-26T08:54:40;2.70;99.90
23729;DHT22;12045;60.214;24.724;2024-02-26T08:57:10;2.30;99.90
23729;DHT22;12045;60.214;24.724;2024-02-26T08:59:38;2.20;99.90
23729;DHT22;12045;60.214;24.724;2024-02-26T09:02:05;2.20;99.90
23729;DHT22;12045;60.214;24.724;2024-02-26T09:04:35;2.20;99.90
23729;DHT22;12045;60.214;24.724;2024-02-26T09:07:04;2.20;99.90
23729;DHT22;12045;60.214;24.724;2024-02-26T09:09:32;2.20;99.90
23729;DHT22;12045;60.214;24.724;2024-02-26T09:12:00;2.20;99.90
23729;DHT22;12045;60.214;24.724;2024-02-26T09:14:31;2.10;99.90
23729;DHT22;12045;60.214;24.724;2024-02-26T09:16:58;2.50;99.90
23729;DHT22;12045;60.214;24.724;2024-02-26T09:19:27;2.90;99.90
23729;DHT22;12045;60.214;24.724;2024-02-26T09:22:03;2.20;99.90
23729;DHT22;12045;60.214;24.724;2024-02-26T09:24:31;1.70;99.90
23729;DHT22;12045;60.214;24.724;2024-02-26T09:26:58;2.10;99.90
23729;DHT22;12045;60.214;24.724;2024-02-26T09:29:27;2.70;99.90
23729;DHT22;12045;60.214;24.724;2024-02-26T09:31:57;2.40;99.90
23729;DHT22;12045;60.214;24.724;2024-02-26T09:34:29;2.50;99.90
23729;DHT22;12045;60.214;24.724;2024-02-26T09:36:59;3.00;99.90
23729;DHT22;12045;60.214;24.724;2024-02-26T09:39:41;2.50;99.90
23729;DHT22;12045;60.214;24.724;2024-02-26T09:42:13;2.70;99.90
23729;DHT22;12045;60.214;24.724;2024-02-26T09:44:40;2.60;99.90
23729;DHT22;12045;60.214;24.724;2024-02-26T09:47:12;3.20;99.90
23729;DHT22;12045;60.214;24.724;2024-02-26T09:49:47;2.60;99.90
23729;DHT22;12045;60.214;24.724;2024-02-26T09:52:17;2.80;99.90
23729;DHT22;12045;60.214;24.724;2024-02-26T09:54:49;2.70;99.90
23729;DHT22;12045;60.214;24.724;2024-02-26T09:57:17;2.80;99.90
23729;DHT22;12045;60.214;24.724;2024-02-26T09:59:47;3.00;99.90
23729;DHT22;12045;60.214;24.724;2024-02-26T10:02:20;2.70;99.90
23729;DHT22;12045;60.214;24.724;2024-02-26T10:04:50;3.70;99.90
23729;DHT22;12045;60.214;24.724;2024-02-26T10:07:23;2.70;99.90
23729;DHT22;12045;60.214;24.724;2024-02-26T10:09:50;2.80;99.90
23729;DHT22;12045;60.214;24.724;2024-02-26T10:12:19;2.80;99.90
23729;DHT22;12045;60.214;24.724;2024-02-26T10:14:48;2.70;99.90
23729;DHT22;12045;60.214;24.724;2024-02-26T10:17:19;3.00;99.90
23729;DHT22;12045;60.214;24.724;2024-02-26T10:19:48;2.80;99.90
23729;DHT22;12045;60.214;24.724;2024-02-26T10:22:17;2.80;99.90
23729;DHT22;12045;60.214;24.724;2024-02-26T10:24:47;3.20;99.90
23729;DHT22;12045;60.214;24.724;2024-02-26T10:27:15;2.90;99.90
23729;DHT22;12045;60.214;24.724;2024-02-26T10:29:42;2.80;99.90
23729;DHT22;12045;60.214;24.724;2024-02-26T10:32:11;2.80;99.90
23729;DHT22;12045;60.214;24.724;2024-02-26T10:34:41;2.70;99.90
23729;DHT22;12045;60.214;24.724;2024-02-26T10:37:09;3.50;99.90
23729;DHT22;12045;60.214;24.724;2024-02-26T10:39:37;2.80;99.90
23729;DHT22;12045;60.214;24.724;2024-02-26T10:42:12;3.20;99.90
23729;DHT22;12045;60.214;24.724;2024-02-26T10:44:40;2.80;99.90
23729;DHT22;12045;60.214;24.724;2024-02-26T10:47:09;2.80;99.90
23729;DHT22;12045;60.214;24.724;2024-02-26T10:49:37;2.90;99.90
23729;DHT22;12045;60.214;24.724;2024-02-26T10:52:07;2.90;99.90
23729;DHT22;12045;60.214;24.724;2024-02-26T10:54:37;3.30;99.90
23729;DHT22;12045;60.214;24.724;2024-02-26T10:57:08;3.00;99.90
23729;DHT22;12045;60.214;24.724;2024-02-26T10:59:37;3.00;99.90
23729;DHT22;12045;60.214;24.724;2024-02-26T11:02:08;3.10;99.90
23729;DHT22;12045;60.214;24.724;2024-02-26T11:04:38;3.60;99.90
23729;DHT22;12045;60.214;24.724;2024-02-26T11:07:09;3.10;99.90
23729;DHT22;12045;60.214;24.724;2024-02-26T11:09:40;3.20;99.90
23729;DHT22;12045;60.214;24.724;2024-02-26T11:12:13;3.10;99.90
23729;DHT22;12045;60.214;24.724;2024-02-26T11:14:44;3.40;99.90
23729;DHT22;12045;60.214;24.724;2024-02-26T11:17:13;3.10;99.90
23729;DHT22;12045;60.214;24.724;2024-02-26T11:19:46;3.20;99.90
23729;DHT22;12045;60.214;24.724;2024-02-26T11:22:15;3.20;99.90
23729;DHT22;12045;60.214;24.724;2024-02-26T11:24:51;3.20;99.90
23729;DHT22;12045;60.214;24.724;2024-02-26T11:27:21;3.20;99.90
23729;DHT22;12045;60.214;24.724;2024-02-26T11:29:53;3.20;99.90
23729;DHT22;12045;60.214;24.724;2024-02-26T11:32:22;3.30;99.90
23729;DHT22;12045;60.214;24.724;2024-02-26T11:34:49;3.10;99.90
23729;DHT22;12045;60.214;24.724;2024-02-26T11:37:19;3.30;99.90
23729;DHT22;12045;60.214;24.724;2024-02-26T11:39:51;3.30;99.90
23729;DHT22;12045;60.214;24.724;2024-02-26T11:42:25;3.20;99.90
23729;DHT22;12045;60.214;24.724;2024-02-26T11:44:54;3.10;99.90
23729;DHT22;12045;60.214;24.724;2024-02-26T11:47:24;3.60;99.90
23729;DHT22;12045;60.214;24.724;2024-02-26T11:49:54;3.10;99.90
23729;DHT22;12045;60.214;24.724;2024-02-26T11:52:23;3.00;99.90
23729;DHT22;12045;60.214;24.724;2024-02-26T11:54:52;2.90;99.90
23729;DHT22;12045;60.214;24.724;2024-02-26T11:59:50;3.40;99.90
23729;DHT22;12045;60.214;24.724;2024-02-26T12:02:44;2.70;99.90
23729;DHT22;12045;60.214;24.724;2024-02-26T12:05:14;2.70;99.90
23729;DHT22;12045;60.214;24.724;2024-02-26T12:07:54;2.70;99.90
23729;DHT22;12045;60.214;24.724;2024-02-26T12:10:25;2.60;99.90
23729;DHT22;12045;60.214;24.724;2024-02-26T12:15:31;2.70;99.90
23729;DHT22;12045;60.214;24.724;2024-02-26T12:18:03;2.50;99.90
23729;DHT22;12045;60.214;24.724;2024-02-26T12:20:32;2.40;99.90
23729;DHT22;12045;60.214;24.724;2024-02-26T12:22:59;2.50;99.90
23729;DHT22;12045;60.214;24.724;2024-02-26T12:25:31;2.60;99.90
23729;DHT22;12045;60.214;24.724;2024-02-26T12:27:59;2.60;99.90
23729;DHT22;12045;60.214;24.724;2024-02-26T12:30:27;2.50;99.90
23729;DHT22;12045;60.214;24.724;2024-02-26T12:32:59;3.00;99.90
23729;DHT22;12045;60.214;24.724;2024-02-26T12:35:29;2.50;99.90
23729;DHT22;12045;60.214;24.724;2024-02-26T12:38:01;2.50;99.90
23729;DHT22;12045;60.214;24.724;2024-02-26T12:40:34;2.50;99.90
23729;DHT22;12045;60.214;24.724;2024-02-26T12:43:03;2.60;99.90
23729;DHT22;12045;60.214;24.724;2024-02-26T12:45:32;2.50;99.90
23729;DHT22;12045;60.214;24.724;2024-02-26T12:48:02;2.70;99.90
23729;DHT22;12045;60.214;24.724;2024-02-26T12:50:33;2.50;99.90
23729;DHT22;12045;60.214;24.724;2024-02-26T12:53:01;2.60;99.90
23729;DHT22;12045;60.214;24.724;2024-02-26T12:55:31;2.80;99.90
23729;DHT22;12045;60.214;24.724;2024-02-26T12:58:04;2.50;99.90
23729;DHT22;12045;60.214;24.724;2024-02-26T13:00:32;2.60;99.90
23729;DHT22;12045;60.214;24.724;2024-02-26T13:03:01;2.50;99.90
23729;DHT22;12045;60.214;24.724;2024-02-26T13:05:30;2.40;99.90
23729;DHT22;12045;60.214;24.724;2024-02-26T13:07:58;2.40;99.90
23729;DHT22;12045;60.214;24.724;2024-02-26T13:10:26;2.30;99.90
23729;DHT22;12045;60.214;24.724;2024-02-26T13:13:01;2.40;99.90
23729;DHT22;12045;60.214;24.724;2024-02-26T13:15:32;2.40;99.90
23729;DHT22;12045;60.214;24.724;2024-02-26T13:18:18;2.10;99.90
23729;DHT22;12045;60.214;24.724;2024-02-26T13:20:48;2.20;99.90
23729;DHT22;12045;60.214;24.724;2024-02-26T13:23:16;2.70;99.90
23729;DHT22;12045;60.214;24.724;2024-02-26T13:25:45;2.60;99.90
23729;DHT22;12045;60.214;24.724;2024-02-26T13:28:18;2.40;99.90
23729;DHT22;12045;60.214;24.724;2024-02-26T13:30:51;2.00;99.90
23729;DHT22;12045;60.214;24.724;2024-02-26T13:33:21;2.00;99.90
23729;DHT22;12045;60.214;24.724;2024-02-26T13:35:52;2.00;99.90
23729;DHT22;12045;60.214;24.724;2024-02-26T13:38:20;2.00;99.90
23729;DHT22;12045;60.214;24.724;2024-02-26T13:40:50;2.40;99.90
23729;DHT22;12045;60.214;24.724;2024-02-26T13:43:19;2.10;99.90
23729;DHT22;12045;60.214;24.724;2024-02-26T13:45:49;2.40;99.90
23729;DHT22;12045;60.214;24.724;2024-02-26T13:48:17;2.50;99.90
23729;DHT22;12045;60.214;24.724;2024-02-26T13:50:46;2.10;99.90
23729;DHT22;12045;60.214;24.724;2024-02-26T13:53:14;2.20;99.90
23729;DHT22;12045;60.214;24.724;2024-02-26T13:55:43;2.20;99.90
23729;DHT22;12045;60.214;24.724;2024-02-26T13:58:13;2.20;99.90
23729;DHT22;12045;60.214;24.724;2024-02-26T14:00:41;2.30;99.90
23729;DHT22;12045;60.214;24.724;2024-02-26T14:03:10;2.30;99.90
23729;DHT22;12045;60.214;24.724;2024-02-26T14:05:39;2.20;99.90
23729;DHT22;12045;60.214;24.724;2024-02-26T14:08:14;2.20;99.90
23729;DHT22;12045;60.214;24.724;2024-02-26T14:10:43;2.20;99.90
23729;DHT22;12045;60.214;24.724;2024-02-26T14:13:12;2.20;99.90
23729;DHT22;12045;60.214;24.724;2024-02-26T14:15:41;2.30;99.90
23729;DHT22;12045;60.214;24.724;2024-02-26T14:18:10;2.50;99.90
23729;DHT22;12045;60.214;24.724;2024-02-26T14:20:37;2.20;99.90
23729;DHT22;12045;60.214;24.724;2024-02-26T14:23:07;2.20;99.90
23729;DHT22;12045;60.214;24.724;2024-02-26T14:25:36;2.20;99.90
23729;DHT22;12045;60.214;24.724;2024-02-26T14:28:05;2.30;99.90
23729;DHT22;12045;60.214;24.724;2024-02-26T14:30:45;2.30;99.90
23729;DHT22;12045;60.214;24.724;2024-02-26T14:33:13;2.30;99.90
23729;DHT22;12045;60.214;24.724;2024-02-26T14:35:41;2.20;99.90
23729;DHT22;12045;60.214;24.724;2024-02-26T14:38:10;2.20;99.90
23729;DHT22;12045;60.214;24.724;2024-02-26T14:40:37;2.20;99.90
23729;DHT22;12045;60.214;24.724;2024-02-26T14:43:05;2.40;99.90
23729;DHT22;12045;60.214;24.724;2024-02-26T14:45:34;2.40;99.90
23729;DHT22;12045;60.214;24.724;2024-02-26T14:48:02;2.30;99.90
23729;DHT22;12045;60.214;24.724;2024-02-26T14:50:30;2.30;99.90
23729;DHT22;12045;60.214;24.724;2024-02-26T14:52:58;2.30;99.90
23729;DHT22;12045;60.214;24.724;2024-02-26T14:55:27;2.30;99.90
23729;DHT22;12045;60.214;24.724;2024-02-26T14:57:55;2.30;99.90
23729;DHT22;12045;60.214;24.724;2024-02-26T15:00:23;2.30;99.90
23729;DHT22;12045;60.214;24.724;2024-02-26T15:02:51;2.60;99.90
23729;DHT22;12045;60.214;24.724;2024-02-26T15:05:23;2.30;99.90
23729;DHT22;12045;60.214;24.724;2024-02-26T15:07:52;2.30;99.90
23729;DHT22;12045;60.214;24.724;2024-02-26T15:10:19;2.30;99.90
23729;DHT22;12045;60.214;24.724;2024-02-26T15:12:47;2.50;99.90
23729;DHT22;12045;60.214;24.724;2024-02-26T15:15:16;2.70;99.90
23729;DHT22;12045;60.214;24.724;2024-02-26T15:17:43;2.30;99.90
23729;DHT22;12045;60.214;24.724;2024-02-26T15:20:15;3.00;99.90
23729;DHT22;12045;60.214;24.724;2024-02-26T15:22:44;2.30;99.90
23729;DHT22;12045;60.214;24.724;2024-02-26T15:25:14;2.40;99.90
23729;DHT22;12045;60.214;24.724;2024-02-26T15:27:44;2.20;99.90
23729;DHT22;12045;60.214;24.724;2024-02-26T15:30:13;2.40;99.90
23729;DHT22;12045;60.214;24.724;2024-02-26T15:32:42;2.30;99.90
23729;DHT22;12045;60.214;24.724;2024-02-26T15:35:11;3.00;99.90
23729;DHT22;12045;60.214;24.724;2024-02-26T15:37:41;2.30;99.90
23729;DHT22;12045;60.214;24.724;2024-02-26T15:40:10;2.40;99.90
23729;DHT22;12045;60.214;24.724;2024-02-26T15:42:39;2.30;99.90
23729;DHT22;12045;60.214;24.724;2024-02-26T15:45:07;2.30;99.90
23729;DHT22;12045;60.214;24.724;2024-02-26T15:47:36;2.30;99.90